Time;durP1;ratioP1;P1;durP2;ratioP2;P2;SDS_P1;SDS_P2;PMS_P1;PMS_P2;Temp;Humidity;BMP_temperature;BMP_pressure;BME280_temperature;BME280_humidity;BME280_pressure;Samples;Min_cycle;Max_cycle;Signal;HPM_P1;HPM_P2
2023/12/05 00:01:32;;;;;;;;;;;;;;;;;;5049354;28;19966;-51
2023/12/05 00:03:58;;;;;;;;;;;;;;;;;;5050580;28;20028;-50
2023/12/05 00:09:11;;;;;;;;;;;;;;;;;;5049901;28;19986;-55
2023/12/05 00:11:37;;;;;;;;;;;;;;;;;;5049225;28;19928;-54
2023/12/05 00:14:03;;;;;;;;;;;;;;;;;;5050044;28;19972;-54
2023/12/05 00:16:29;;;;;;;;;;;;;;;;;;5049047;28;20027;-54
2023/12/05 00:18:55;;;;;;;;;;;;;;;;;;5050108;28;20035;-53
2023/12/05 00:21:21;;;;;;;;;;;;;;;;;;5048189;28;19971;-54
2023/12/05 00:23:46;;;;;;;;;;;;;;;;;;5049661;28;19979;-53
2023/12/05 00:26:12;;;;;;;;;;;;;;;;;;5049608;28;19979;-54
2023/12/05 00:28:38;;;;;;;;;;;;;;;;;;5049265;28;19956;-53
2023/12/05 00:31:04;;;;;;;;;;;;;;;;;;5049189;28;19987;-53
2023/12/05 00:33:30;;;;;;;;;;;;;;;;;;5049127;28;19931;-54
2023/12/05 00:35:56;;;;;;;;;;;;;;;;;;5049495;28;19927;-54
2023/12/05 00:38:22;;;;;;;;;;;;;;;;;;5049477;28;19947;-54
2023/12/05 00:40:48;;;;;;;;;;;;;;;;;;5049096;28;19952;-54
2023/12/05 00:43:14;;;;;;;;;;;;;;;;;;5049364;28;20190;-55
2023/12/05 00:45:40;;;;;;;;;;;;;;;;;;5048873;28;20535;-54
2023/12/05 00:48:06;;;;;;;;;;;;;;;;;;5049392;28;20396;-53
2023/12/05 00:50:32;;;;;;;;;;;;;;;;;;5049066;28;19960;-54
2023/12/05 00:52:58;;;;;;;;;;;;;;;;;;5048762;28;20028;-54
2023/12/05 00:55:24;;;;;;;;;;;;;;;;;;5048718;28;19971;-54
2023/12/05 00:57:49;;;;;;;;;;;;;;;;;;5050308;28;20014;-54
2023/12/05 01:00:15;;;;;;;;;;;;;;;;;;5056830;28;19953;-54
2023/12/05 01:02:41;;;;;;;;;;;;;;;;;;5057670;28;20385;-54
2023/12/05 01:05:09;;;;;;;;;;;;;;;;;;5054003;28;19923;-54
2023/12/05 01:07:34;;;;;;;;;;;;;;;;;;5048542;28;20349;-54
2023/12/05 01:10:00;;;;;;;;;;;;;;;;;;5049688;28;20011;-54
2023/12/05 01:12:26;;;;;;;;;;;;;;;;;;5052718;28;19975;-54
2023/12/05 01:14:52;;;;;;;;;;;;;;;;;;5053162;28;19963;-55
2023/12/05 01:17:18;;;;;;;;;;;;;;;;;;5052904;28;19917;-55
2023/12/05 01:19:44;;;;;;;;;;;;;;;;;;5053083;28;19952;-53
2023/12/05 01:22:10;;;;;;;;;;;;;;;;;;5051314;28;20017;-54
2023/12/05 01:24:36;;;;;;;;;;;;;;;;;;5052689;28;19987;-54
2023/12/05 01:27:03;;;;;;;;;;;;;;;;;;5052299;28;19938;-54
2023/12/05 01:29:29;;;;;;;;;;;;;;;;;;5052771;28;20364;-55
2023/12/05 01:31:55;;;;;;;;;;;;;;;;;;5052487;28;19920;-54
2023/12/05 01:34:21;;;;;;;;;;;;;;;;;;5052506;28;20053;-54
2023/12/05 01:36:47;;;;;;;;;;;;;;;;;;5052070;28;19956;-55
2023/12/05 01:39:13;;;;;;;;;;;;;;;;;;5052272;28;19940;-55
2023/12/05 01:41:39;;;;;;;;;;;;;;;;;;5052507;28;20312;-55
2023/12/05 01:44:05;;;;;;;;;;;;;;;;;;5052322;28;20009;-56
2023/12/05 01:46:31;;;;;;;;;;;;;;;;;;5052300;28;20388;-55
2023/12/05 01:48:57;;;;;;;;;;;;;;;;;;5052614;28;19931;-55
2023/12/05 01:51:23;;;;;;;;;;;;;;;;;;5051072;28;20041;-54
2023/12/05 01:53:49;;;;;;;;;;;;;;;;;;5049800;28;20281;-54
2023/12/05 01:56:15;;;;;;;;;;;;;;;;;;5050118;28;20154;-54
2023/12/05 01:58:41;;;;;;;;;;;;;;;;;;5055015;28;20413;-56
2023/12/05 02:01:07;;;;;;;;;;;;;;;;;;5052089;28;19952;-53
2023/12/05 02:03:33;;;;;;;;;;;;;;;;;;5052263;28;19956;-55
2023/12/05 02:05:59;;;;;;;;;;;;;;;;;;5051345;28;19948;-55
2023/12/05 02:08:25;;;;;;;;;;;;;;;;;;5052078;28;19953;-54
2023/12/05 02:10:51;;;;;;;;;;;;;;;;;;5052611;28;19952;-56
2023/12/05 02:13:17;;;;;;;;;;;;;;;;;;5057195;28;19923;-55
2023/12/05 02:15:43;;;;;;;;;;;;;;;;;;5052959;28;19927;-55
2023/12/05 02:18:09;;;;;;;;;;;;;;;;;;5054560;28;19975;-54
2023/12/05 02:20:35;;;;;;;;;;;;;;;;;;5051942;28;20341;-55
2023/12/05 02:23:01;;;;;;;;;;;;;;;;;;5052446;28;20407;-54
2023/12/05 02:25:27;;;;;;;;;;;;;;;;;;5063107;28;20512;-55
2023/12/05 02:27:53;;;;;;;;;;;;;;;;;;5053876;28;20039;-55
2023/12/05 02:30:19;;;;;;;;;;;;;;;;;;5050820;28;20018;-51
2023/12/05 02:32:44;;;;;;;;;;;;;;;;;;5054249;28;20009;-52
2023/12/05 02:35:11;;;;;;;;;;;;;;;;;;5056347;28;19952;-51
2023/12/05 02:37:37;;;;;;;;;;;;;;;;;;5050315;28;20020;-52
2023/12/05 02:40:04;;;;;;;;;;;;;;;;;;5050432;28;19917;-53
2023/12/05 02:42:30;;;;;;;;;;;;;;;;;;5051060;28;19960;-53
2023/12/05 02:44:56;;;;;;;;;;;;;;;;;;5057754;28;20009;-53
2023/12/05 02:47:22;;;;;;;;;;;;;;;;;;5054880;28;20026;-52
2023/12/05 02:49:48;;;;;;;;;;;;;;;;;;5044731;28;19959;-53
2023/12/05 02:52:14;;;;;;;;;;;;;;;;;;5059746;28;20752;-52
2023/12/05 02:54:40;;;;;;;;;;;;;;;;;;5052659;28;20514;-52
2023/12/05 02:57:06;;;;;;;;;;;;;;;;;;5068831;28;20380;-52
2023/12/05 02:59:32;;;;;;;;;;;;;;;;;;5069895;28;20380;-53
2023/12/05 03:01:57;;;;;;;;;;;;;;;;;;5051826;28;19917;-53
2023/12/05 03:04:23;;;;;;;;;;;;;;;;;;5053500;28;20010;-52
2023/12/05 03:06:49;;;;;;;;;;;;;;;;;;5041210;28;19949;-52
2023/12/05 03:09:15;;;;;;;;;;;;;;;;;;5052735;28;19955;-52
2023/12/05 03:11:41;;;;;;;;;;;;;;;;;;5053152;28;19944;-52
2023/12/05 03:14:08;;;;;;;;;;;;;;;;;;5054131;28;20009;-52
2023/12/05 03:16:33;;;;;;;;;;;;;;;;;;5054998;28;19912;-52
2023/12/05 03:18:59;;;;;;;;;;;;;;;;;;5064577;28;20351;-53
2023/12/05 03:21:25;;;;;;;;;;;;;;;;;;5051184;28;20348;-52
2023/12/05 03:23:51;;;;;;;;;;;;;;;;;;5051576;28;19975;-52
2023/12/05 03:26:18;;;;;;;;;;;;;;;;;;5050503;28;19982;-52
2023/12/05 03:28:44;;;;;;;;;;;;;;;;;;5050840;28;19952;-53
2023/12/05 03:31:10;;;;;;;;;;;;;;;;;;5051341;28;19951;-52
2023/12/05 03:33:35;;;;;;;;;;;;;;;;;;5051382;28;20369;-52
2023/12/05 03:36:01;;;;;;;;;;;;;;;;;;5050443;28;19999;-52
2023/12/05 03:38:27;;;;;;;;;;;;;;;;;;5050592;28;19966;-52
2023/12/05 03:40:54;;;;;;;;;;;;;;;;;;5050627;28;20316;-52
2023/12/05 03:43:20;;;;;;;;;;;;;;;;;;5050684;28;19990;-52
2023/12/05 03:45:46;;;;;;;;;;;;;;;;;;5050185;28;19948;-52
2023/12/05 03:48:12;;;;;;;;;;;;;;;;;;5050572;28;19951;-52
2023/12/05 03:50:37;;;;;;;;;;;;;;;;;;5050237;28;19951;-52
2023/12/05 03:53:03;;;;;;;;;;;;;;;;;;5050574;28;19948;-52
2023/12/05 03:55:29;;;;;;;;;;;;;;;;;;5050760;28;19948;-52
2023/12/05 03:57:55;;;;;;;;;;;;;;;;;;5050545;28;20038;-53
2023/12/05 04:00:21;;;;;;;;;;;;;;;;;;5050429;28;20336;-52
2023/12/05 04:02:47;;;;;;;;;;;;;;;;;;5050243;28;20337;-52
2023/12/05 04:05:13;;;;;;;;;;;;;;;;;;5050524;28;20388;-52
2023/12/05 04:07:39;;;;;;;;;;;;;;;;;;5050793;28;19932;-51
2023/12/05 04:10:05;;;;;;;;;;;;;;;;;;5053417;28;19967;-51
2023/12/05 04:12:31;;;;;;;;;;;;;;;;;;5066258;28;19952;-51
2023/12/05 04:14:57;;;;;;;;;;;;;;;;;;5057287;28;19968;-51
2023/12/05 04:17:23;;;;;;;;;;;;;;;;;;5056117;28;19970;-51
2023/12/05 04:19:49;;;;;;;;;;;;;;;;;;5062990;28;19916;-52
2023/12/05 04:22:15;;;;;;;;;;;;;;;;;;5049272;28;20050;-51
2023/12/05 04:24:41;;;;;;;;;;;;;;;;;;5051639;28;19978;-51
2023/12/05 04:27:07;;;;;;;;;;;;;;;;;;5049508;28;19952;-52
2023/12/05 04:29:32;;;;;;;;;;;;;;;;;;5048722;28;19940;-51
2023/12/05 04:32:01;;;;;;;;;;;;;;;;;;5056196;28;19956;-52
2023/12/05 04:34:27;;;;;;;;;;;;;;;;;;5052184;28;19921;-51
2023/12/05 04:36:53;;;;;;;;;;;;;;;;;;5055112;28;19920;-51
2023/12/05 04:39:19;;;;;;;;;;;;;;;;;;5050837;28;19962;-51
2023/12/05 04:41:45;;;;;;;;;;;;;;;;;;5051344;28;20376;-51
2023/12/05 04:44:11;;;;;;;;;;;;;;;;;;5053190;28;20380;-51
2023/12/05 04:46:37;;;;;;;;;;;;;;;;;;5050167;28;20375;-51
2023/12/05 04:49:03;;;;;;;;;;;;;;;;;;5056140;28;20334;-51
2023/12/05 04:51:29;;;;;;;;;;;;;;;;;;5064281;28;19952;-51
2023/12/05 04:53:55;;;;;;;;;;;;;;;;;;5054918;28;20364;-51
2023/12/05 04:56:22;;;;;;;;;;;;;;;;;;5049084;28;19960;-51
2023/12/05 04:58:48;;;;;;;;;;;;;;;;;;5051390;28;19920;-51
2023/12/05 05:01:14;;;;;;;;;;;;;;;;;;5049500;28;19978;-51
2023/12/05 05:03:40;;;;;;;;;;;;;;;;;;5067427;28;19925;-51
2023/12/05 05:06:06;;;;;;;;;;;;;;;;;;5048603;28;19921;-51
2023/12/05 05:08:32;;;;;;;;;;;;;;;;;;5052795;28;20061;-51
2023/12/05 05:11:01;;;;;;;;;;;;;;;;;;5046311;28;19912;-52
2023/12/05 05:13:27;;;;;;;;;;;;;;;;;;5049721;28;20328;-51
2023/12/05 05:15:52;;;;;;;;;;;;;;;;;;5054255;28;19916;-52
2023/12/05 05:18:18;;;;;;;;;;;;;;;;;;5050473;28;20209;-51
2023/12/05 05:20:44;;;;;;;;;;;;;;;;;;5049080;28;19952;-51
2023/12/05 05:23:11;;;;;;;;;;;;;;;;;;5049194;28;19955;-52
2023/12/05 05:25:37;;;;;;;;;;;;;;;;;;5045171;28;19920;-52
2023/12/05 05:28:03;;;;;;;;;;;;;;;;;;5057866;28;20444;-52
2023/12/05 05:30:29;;;;;;;;;;;;;;;;;;5052012;28;19956;-51
2023/12/05 05:32:55;;;;;;;;;;;;;;;;;;5047994;28;19955;-52
2023/12/05 05:35:20;;;;;;;;;;;;;;;;;;5048623;28;19971;-51
2023/12/05 05:37:46;;;;;;;;;;;;;;;;;;5045956;28;19967;-52
2023/12/05 05:40:13;;;;;;;;;;;;;;;;;;5048543;28;19955;-51
2023/12/05 05:42:39;;;;;;;;;;;;;;;;;;5047868;28;19917;-51
2023/12/05 05:45:05;;;;;;;;;;;;;;;;;;5049829;28;20031;-51
2023/12/05 05:47:31;;;;;;;;;;;;;;;;;;5048389;28;19956;-52
2023/12/05 05:49:57;;;;;;;;;;;;;;;;;;5030425;28;19917;-51
2023/12/05 05:52:23;;;;;;;;;;;;;;;;;;5051742;28;19955;-52
2023/12/05 05:54:50;;;;;;;;;;;;;;;;;;5051528;28;20021;-51
2023/12/05 05:57:16;;;;;;;;;;;;;;;;;;5049456;28;19920;-51
2023/12/05 05:59:45;;;;;;;;;;;;;;;;;;5052196;28;19999;-54
2023/12/05 06:02:11;;;;;;;;;;;;;;;;;;5051965;28;19916;-54
2023/12/05 06:04:36;;;;;;;;;;;;;;;;;;5051885;28;19963;-55
2023/12/05 06:07:02;;;;;;;;;;;;;;;;;;5058142;28;19952;-51
2023/12/05 06:09:28;;;;;;;;;;;;;;;;;;5051831;28;19964;-51
2023/12/05 06:11:54;;;;;;;;;;;;;;;;;;5051187;28;19944;-51
2023/12/05 06:14:20;;;;;;;;;;;;;;;;;;5063131;28;19982;-51
2023/12/05 06:16:46;;;;;;;;;;;;;;;;;;5066275;28;19971;-52
2023/12/05 06:19:12;;;;;;;;;;;;;;;;;;5056052;28;19985;-51
2023/12/05 06:21:38;;;;;;;;;;;;;;;;;;5049688;28;19956;-50
2023/12/05 06:24:04;;;;;;;;;;;;;;;;;;5051487;28;19952;-50
2023/12/05 06:26:30;;;;;;;;;;;;;;;;;;5049393;28;19985;-51
2023/12/05 06:28:56;;;;;;;;;;;;;;;;;;5060258;28;20360;-52
2023/12/05 06:31:22;;;;;;;;;;;;;;;;;;5053440;28;19921;-51
2023/12/05 06:33:48;;;;;;;;;;;;;;;;;;5051314;28;19925;-52
2023/12/05 06:36:14;;;;;;;;;;;;;;;;;;5052163;28;20008;-52
2023/12/05 06:38:40;;;;;;;;;;;;;;;;;;5053973;28;20567;-51
2023/12/05 06:41:12;;;;;;;;;;;;;;;;;;5052998;28;20342;-51
2023/12/05 06:43:38;;;;;;;;;;;;;;;;;;5052041;28;19982;-51
2023/12/05 06:46:04;;;;;;;;;;;;;;;;;;5051953;28;20361;-51
2023/12/05 06:48:29;;;;;;;;;;;;;;;;;;5051597;28;20403;-52
2023/12/05 06:50:55;;;;;;;;;;;;;;;;;;5051547;28;19951;-51
2023/12/05 06:53:21;;;;;;;;;;;;;;;;;;5052105;28;20369;-52
2023/12/05 06:55:48;;;;;;;;;;;;;;;;;;5056004;28;19971;-51
2023/12/05 06:58:14;;;;;;;;;;;;;;;;;;5050985;28;19964;-51
2023/12/05 07:00:40;;;;;;;;;;;;;;;;;;5051484;28;19936;-51
2023/12/05 07:03:06;;;;;;;;;;;;;;;;;;5050637;28;19916;-51
2023/12/05 07:05:32;;;;;;;;;;;;;;;;;;5050292;28;20325;-53
2023/12/05 07:07:58;;;;;;;;;;;;;;;;;;5050725;28;19912;-51
2023/12/05 07:10:24;;;;;;;;;;;;;;;;;;5053841;28;20008;-51
2023/12/05 07:12:50;;;;;;;;;;;;;;;;;;5050611;28;19966;-55
2023/12/05 07:15:16;;;;;;;;;;;;;;;;;;5053187;28;19970;-55
2023/12/05 07:17:42;;;;;;;;;;;;;;;;;;5060373;28;19963;-52
2023/12/05 07:20:08;;;;;;;;;;;;;;;;;;5050426;28;19956;-51
2023/12/05 07:22:35;;;;;;;;;;;;;;;;;;5059964;28;20164;-50
2023/12/05 07:25:01;;;;;;;;;;;;;;;;;;5051965;28;20036;-52
2023/12/05 07:27:27;;;;;;;;;;;;;;;;;;5058498;28;20011;-52
2023/12/05 07:29:53;;;;;;;;;;;;;;;;;;5051871;28;19916;-53
2023/12/05 07:32:19;;;;;;;;;;;;;;;;;;5060577;28;19955;-52
2023/12/05 07:34:45;;;;;;;;;;;;;;;;;;5049041;28;19960;-51
2023/12/05 07:37:11;;;;;;;;;;;;;;;;;;5064461;28;19951;-50
2023/12/05 07:39:37;;;;;;;;;;;;;;;;;;5057806;28;19967;-52
2023/12/05 07:42:03;;;;;;;;;;;;;;;;;;5056436;28;19913;-51
2023/12/05 07:44:29;;;;;;;;;;;;;;;;;;5058829;28;20032;-52
2023/12/05 07:46:55;;;;;;;;;;;;;;;;;;5057819;28;19952;-51
2023/12/05 07:49:21;;;;;;;;;;;;;;;;;;5051932;28;19921;-51
2023/12/05 07:51:47;;;;;;;;;;;;;;;;;;5058728;28;20292;-51
2023/12/05 07:54:13;;;;;;;;;;;;;;;;;;5057263;28;20009;-52
2023/12/05 07:56:39;;;;;;;;;;;;;;;;;;5049235;28;19998;-52
2023/12/05 07:59:05;;;;;;;;;;;;;;;;;;5049190;28;19951;-51
2023/12/05 08:01:31;;;;;;;;;;;;;;;;;;5050256;28;19972;-52
2023/12/05 08:04:01;;;;;;;;;;;;;;;;;;5053666;28;20015;-52
2023/12/05 08:06:27;;;;;;;;;;;;;;;;;;5046873;28;19963;-52
2023/12/05 08:08:53;;;;;;;;;;;;;;;;;;5049982;28;19956;-52
2023/12/05 08:11:19;;;;;;;;;;;;;;;;;;5049576;28;19967;-52
2023/12/05 08:13:47;;;;;;;;;;;;;;;;;;5054880;28;19963;-51
2023/12/05 08:16:13;;;;;;;;;;;;;;;;;;5051890;28;19962;-52
2023/12/05 08:18:39;;;;;;;;;;;;;;;;;;5050791;28;20360;-54
2023/12/05 08:21:05;;;;;;;;;;;;;;;;;;5048864;28;20369;-55
2023/12/05 08:23:31;;;;;;;;;;;;;;;;;;5050007;28;20329;-52
2023/12/05 08:25:56;;;;;;;;;;;;;;;;;;5052763;28;20380;-52
2023/12/05 08:28:22;;;;;;;;;;;;;;;;;;5049847;28;20336;-52
2023/12/05 08:30:48;;;;;;;;;;;;;;;;;;5051680;28;19956;-52
2023/12/05 08:33:14;;;;;;;;;;;;;;;;;;5051076;28;20714;-52
2023/12/05 08:35:40;;;;;;;;;;;;;;;;;;5055896;28;19990;-54
2023/12/05 08:38:06;;;;;;;;;;;;;;;;;;5049797;28;19963;-55
2023/12/05 08:40:32;;;;;;;;;;;;;;;;;;5051593;28;20490;-55
2023/12/05 08:42:58;;;;;;;;;;;;;;;;;;5048828;28;19971;-55
2023/12/05 08:45:24;;;;;;;;;;;;;;;;;;5050671;28;19955;-53
2023/12/05 08:47:54;;;;;;;;;;;;;;;;;;5055069;28;19959;-53
2023/12/05 08:50:20;;;;;;;;;;;;;;;;;;5048289;28;20433;-55
2023/12/05 08:52:46;;;;;;;;;;;;;;;;;;5049951;28;19967;-55
2023/12/05 08:55:11;;;;;;;;;;;;;;;;;;5054741;28;19924;-56
2023/12/05 08:57:38;;;;;;;;;;;;;;;;;;5049077;28;19920;-55
2023/12/05 09:00:04;;;;;;;;;;;;;;;;;;5049755;28;19960;-55
2023/12/05 09:02:30;;;;;;;;;;;;;;;;;;5055696;28;19917;-55
2023/12/05 09:04:56;;;;;;;;;;;;;;;;;;5053046;28;19947;-56
2023/12/05 09:07:22;;;;;;;;;;;;;;;;;;5052876;28;19956;-55
2023/12/05 09:09:48;;;;;;;;;;;;;;;;;;5055415;28;19968;-55
2023/12/05 09:12:14;;;;;;;;;;;;;;;;;;5053563;28;19928;-55
2023/12/05 09:14:40;;;;;;;;;;;;;;;;;;5052616;28;20011;-55
2023/12/05 09:17:09;;;;;;;;;;;;;;;;;;5053837;28;19956;-54
2023/12/05 09:19:35;;;;;;;;;;;;;;;;;;5060127;28;19923;-52
2023/12/05 09:22:00;;;;;;;;;;;;;;;;;;5049603;28;19920;-52
2023/12/05 09:24:26;;;;;;;;;;;;;;;;;;5061112;28;20030;-53
2023/12/05 09:26:52;;;;;;;;;;;;;;;;;;5048920;28;19983;-53
2023/12/05 09:29:18;;;;;;;;;;;;;;;;;;5048604;28;19952;-52
2023/12/05 09:31:44;;;;;;;;;;;;;;;;;;5054577;28;20009;-53
2023/12/05 09:34:10;;;;;;;;;;;;;;;;;;5055811;28;19994;-53
2023/12/05 09:36:36;;;;;;;;;;;;;;;;;;5065332;28;20341;-55
2023/12/05 09:39:02;;;;;;;;;;;;;;;;;;5063017;28;20388;-54
2023/12/05 09:41:28;;;;;;;;;;;;;;;;;;5065736;28;19919;-55
2023/12/05 09:43:54;;;;;;;;;;;;;;;;;;5061447;28;20003;-55
2023/12/05 09:46:20;;;;;;;;;;;;;;;;;;5056530;28;20372;-55
2023/12/05 09:48:47;;;;;;;;;;;;;;;;;;5053028;28;20440;-56
2023/12/05 09:51:13;;;;;;;;;;;;;;;;;;5050769;28;20371;-55
2023/12/05 09:53:39;;;;;;;;;;;;;;;;;;5051853;28;19959;-55
2023/12/05 09:56:04;;;;;;;;;;;;;;;;;;5052356;28;20055;-55
2023/12/05 09:58:30;;;;;;;;;;;;;;;;;;5052061;28;19952;-56
2023/12/05 10:00:56;;;;;;;;;;;;;;;;;;5052461;28;19964;-55
2023/12/05 10:03:22;;;;;;;;;;;;;;;;;;5052492;28;19944;-56
2023/12/05 10:05:48;;;;;;;;;;;;;;;;;;5052606;28;19955;-55
2023/12/05 10:08:14;;;;;;;;;;;;;;;;;;5051534;28;20389;-54
2023/12/05 10:10:40;;;;;;;;;;;;;;;;;;5052511;28;19915;-55
2023/12/05 10:13:06;;;;;;;;;;;;;;;;;;5051708;28;19978;-55
2023/12/05 10:15:32;;;;;;;;;;;;;;;;;;5052315;28;19956;-55
2023/12/05 10:17:58;;;;;;;;;;;;;;;;;;5051238;28;19941;-55
2023/12/05 10:20:24;;;;;;;;;;;;;;;;;;5056229;28;19916;-54
2023/12/05 10:22:50;;;;;;;;;;;;;;;;;;5070815;28;20007;-55
2023/12/05 10:25:16;;;;;;;;;;;;;;;;;;5071858;28;20408;-55
2023/12/05 10:27:42;;;;;;;;;;;;;;;;;;5065390;28;19917;-55
2023/12/05 10:30:08;;;;;;;;;;;;;;;;;;5052090;28;19967;-55
2023/12/05 10:32:34;;;;;;;;;;;;;;;;;;5050763;28;19955;-55
2023/12/05 10:35:02;;;;;;;;;;;;;;;;;;5052319;28;20377;-55
2023/12/05 10:37:30;;;;;;;;;;;;;;;;;;5050880;28;19917;-55
2023/12/05 10:39:56;;;;;;;;;;;;;;;;;;5051955;28;20440;-55
2023/12/05 10:42:22;;;;;;;;;;;;;;;;;;5051300;28;19956;-52
2023/12/05 10:44:48;;;;;;;;;;;;;;;;;;5051639;28;19948;-52
2023/12/05 10:47:14;;;;;;;;;;;;;;;;;;5051457;28;20003;-51
2023/12/05 10:49:42;;;;;;;;;;;;;;;;;;5051739;28;19920;-51
2023/12/05 10:52:08;;;;;;;;;;;;;;;;;;5050919;28;19928;-52
2023/12/05 10:54:33;;;;;;;;;;;;;;;;;;5051678;28;20698;-52
2023/12/05 10:56:59;;;;;;;;;;;;;;;;;;5051030;28;20388;-51
2023/12/05 10:59:26;;;;;;;;;;;;;;;;;;5051376;28;19979;-52
2023/12/05 11:01:52;;;;;;;;;;;;;;;;;;5051320;28;20003;-51
2023/12/05 11:04:18;;;;;;;;;;;;;;;;;;5051432;28;20004;-51
2023/12/05 11:06:44;;;;;;;;;;;;;;;;;;5050855;28;19920;-51
2023/12/05 11:09:10;;;;;;;;;;;;;;;;;;5051253;28;20360;-51
2023/12/05 11:11:37;;;;;;;;;;;;;;;;;;5050971;28;20329;-52
2023/12/05 11:14:03;;;;;;;;;;;;;;;;;;5050455;28;19917;-53
2023/12/05 11:16:29;;;;;;;;;;;;;;;;;;5050923;28;19955;-53
2023/12/05 11:18:55;;;;;;;;;;;;;;;;;;5051233;28;19916;-54
2023/12/05 11:21:21;;;;;;;;;;;;;;;;;;5049813;28;19997;-54
2023/12/05 11:23:48;;;;;;;;;;;;;;;;;;5058508;28;19967;-53
2023/12/05 11:26:14;;;;;;;;;;;;;;;;;;5070346;28;20007;-54
2023/12/05 11:28:40;;;;;;;;;;;;;;;;;;5064358;28;20031;-53
2023/12/05 11:31:06;;;;;;;;;;;;;;;;;;5050287;28;20021;-52
2023/12/05 11:33:32;;;;;;;;;;;;;;;;;;5050939;28;20015;-50
2023/12/05 11:35:58;;;;;;;;;;;;;;;;;;5050580;28;20070;-52
2023/12/05 11:38:24;;;;;;;;;;;;;;;;;;5050290;28;19913;-54
2023/12/05 11:40:50;;;;;;;;;;;;;;;;;;5050220;28;19964;-52
2023/12/05 11:43:16;;;;;;;;;;;;;;;;;;5049873;28;19975;-52
2023/12/05 11:45:42;;;;;;;;;;;;;;;;;;5050631;28;19955;-52
2023/12/05 11:48:08;;;;;;;;;;;;;;;;;;5050601;28;19948;-53
2023/12/05 11:50:34;;;;;;;;;;;;;;;;;;5050383;28;19913;-54
2023/12/05 11:53:00;;;;;;;;;;;;;;;;;;5050149;28;20342;-56
2023/12/05 11:55:26;;;;;;;;;;;;;;;;;;5049682;28;19951;-56
2023/12/05 11:57:52;;;;;;;;;;;;;;;;;;5050075;28;19913;-56
2023/12/05 12:00:18;;;;;;;;;;;;;;;;;;5050471;28;19952;-56
2023/12/05 12:02:44;;;;;;;;;;;;;;;;;;5049981;28;19912;-56
2023/12/05 12:05:10;;;;;;;;;;;;;;;;;;5050159;28;19909;-53
2023/12/05 12:07:36;;;;;;;;;;;;;;;;;;5049277;28;19913;-53
2023/12/05 12:10:02;;;;;;;;;;;;;;;;;;5050237;28;20376;-53
2023/12/05 12:12:28;;;;;;;;;;;;;;;;;;5050829;28;19948;-53
2023/12/05 12:14:54;;;;;;;;;;;;;;;;;;5048539;28;19963;-53
2023/12/05 12:17:20;;;;;;;;;;;;;;;;;;5048013;28;19940;-53
2023/12/05 12:19:46;;;;;;;;;;;;;;;;;;5049598;28;19964;-53
2023/12/05 12:22:12;;;;;;;;;;;;;;;;;;5054781;28;19963;-53
2023/12/05 12:24:39;;;;;;;;;;;;;;;;;;5055119;28;19916;-51
2023/12/05 12:27:07;;;;;;;;;;;;;;;;;;5050352;28;19924;-53
2023/12/05 12:29:33;;;;;;;;;;;;;;;;;;5053379;28;19944;-53
2023/12/05 12:31:58;;;;;;;;;;;;;;;;;;5051111;28;19916;-54
2023/12/05 12:34:28;;;;;;;;;;;;;;;;;;5055628;28;19982;-54
2023/12/05 12:36:55;;;;;;;;;;;;;;;;;;5064151;28;19924;-53
2023/12/05 12:39:23;;;;;;;;;;;;;;;;;;5052131;28;19917;-54
2023/12/05 12:41:49;;;;;;;;;;;;;;;;;;5063595;28;19997;-54
2023/12/05 12:44:15;;;;;;;;;;;;;;;;;;5067781;28;19956;-53
2023/12/05 12:46:41;;;;;;;;;;;;;;;;;;5048810;28;19964;-53
2023/12/05 12:49:07;;;;;;;;;;;;;;;;;;5048571;28;20389;-53
2023/12/05 12:51:34;;;;;;;;;;;;;;;;;;5044418;28;20387;-53
2023/12/05 12:53:59;;;;;;;;;;;;;;;;;;5047515;28;19921;-53
2023/12/05 12:56:25;;;;;;;;;;;;;;;;;;5036882;28;19951;-54
2023/12/05 12:58:51;;;;;;;;;;;;;;;;;;5040986;28;19952;-57
2023/12/05 13:01:17;;;;;;;;;;;;;;;;;;5049432;28;20258;-55
2023/12/05 13:03:44;;;;;;;;;;;;;;;;;;5049142;28;19979;-53
2023/12/05 13:06:11;;;;;;;;;;;;;;;;;;5048981;28;19927;-53
2023/12/05 13:08:37;;;;;;;;;;;;;;;;;;5051937;28;19916;-53
2023/12/05 13:11:03;;;;;;;;;;;;;;;;;;5052139;28;19998;-53
2023/12/05 13:13:29;;;;;;;;;;;;;;;;;;5046524;28;19955;-56
2023/12/05 13:15:55;;;;;;;;;;;;;;;;;;5051280;28;19960;-56
2023/12/05 13:18:21;;;;;;;;;;;;;;;;;;5052227;28;19976;-56
2023/12/05 13:20:47;;;;;;;;;;;;;;;;;;5049514;28;19959;-56
2023/12/05 13:23:13;;;;;;;;;;;;;;;;;;5073078;28;19912;-56
2023/12/05 13:25:39;;;;;;;;;;;;;;;;;;5058276;28;19990;-55
2023/12/05 13:28:05;;;;;;;;;;;;;;;;;;5052564;28;19916;-55
2023/12/05 13:30:31;;;;;;;;;;;;;;;;;;5052911;28;19938;-55
2023/12/05 13:32:57;;;;;;;;;;;;;;;;;;5052458;28;19964;-55
2023/12/05 13:35:23;;;;;;;;;;;;;;;;;;5053525;28;19917;-56
2023/12/05 13:37:49;;;;;;;;;;;;;;;;;;5052105;28;20357;-55
2023/12/05 13:40:15;;;;;;;;;;;;;;;;;;5053149;28;20372;-56
2023/12/05 13:42:41;;;;;;;;;;;;;;;;;;5052499;28;19912;-56
2023/12/05 13:45:07;;;;;;;;;;;;;;;;;;5052690;28;19960;-56
2023/12/05 13:47:33;;;;;;;;;;;;;;;;;;5053148;28;20313;-54
2023/12/05 13:49:59;;;;;;;;;;;;;;;;;;5052998;28;19916;-56
2023/12/05 13:52:25;;;;;;;;;;;;;;;;;;5052091;28;19944;-54
2023/12/05 13:54:51;;;;;;;;;;;;;;;;;;5052765;28;19913;-55
2023/12/05 13:57:17;;;;;;;;;;;;;;;;;;5052278;28;19944;-55
2023/12/05 13:59:43;;;;;;;;;;;;;;;;;;5052505;28;19917;-55
2023/12/05 14:02:09;;;;;;;;;;;;;;;;;;5052618;28;19917;-55
2023/12/05 14:04:35;;;;;;;;;;;;;;;;;;5052718;28;20353;-54
2023/12/05 14:07:01;;;;;;;;;;;;;;;;;;5051645;28;19975;-55
2023/12/05 14:09:27;;;;;;;;;;;;;;;;;;5047892;28;20375;-55
2023/12/05 14:11:56;;;;;;;;;;;;;;;;;;5048819;28;19956;-55
2023/12/05 14:14:22;;;;;;;;;;;;;;;;;;5048194;28;20002;-56
2023/12/05 14:16:48;;;;;;;;;;;;;;;;;;5050482;28;20372;-55
2023/12/05 14:19:14;;;;;;;;;;;;;;;;;;5051939;28;20407;-55
2023/12/05 14:21:40;;;;;;;;;;;;;;;;;;5050743;28;19951;-56
2023/12/05 14:24:06;;;;;;;;;;;;;;;;;;5052484;28;19959;-55
2023/12/05 14:26:32;;;;;;;;;;;;;;;;;;5051284;28;19908;-55
2023/12/05 14:28:57;;;;;;;;;;;;;;;;;;5052140;28;19952;-56
2023/12/05 14:31:23;;;;;;;;;;;;;;;;;;5051548;28;19964;-55
2023/12/05 14:33:49;;;;;;;;;;;;;;;;;;5051970;28;19960;-53
2023/12/05 14:36:15;;;;;;;;;;;;;;;;;;5049621;28;19952;-53
2023/12/05 14:38:41;;;;;;;;;;;;;;;;;;5051621;28;19940;-53
2023/12/05 14:41:07;;;;;;;;;;;;;;;;;;5047773;28;19956;-53
2023/12/05 14:43:33;;;;;;;;;;;;;;;;;;5052062;28;19932;-56
2023/12/05 14:45:59;;;;;;;;;;;;;;;;;;5051111;28;19964;-56
2023/12/05 14:48:25;;;;;;;;;;;;;;;;;;5053694;28;19960;-53
2023/12/05 14:50:51;;;;;;;;;;;;;;;;;;5052784;28;19988;-53
2023/12/05 14:53:17;;;;;;;;;;;;;;;;;;5053330;28;19960;-53
2023/12/05 14:55:43;;;;;;;;;;;;;;;;;;5053806;28;19923;-53
2023/12/05 14:58:09;;;;;;;;;;;;;;;;;;5053240;28;19928;-53
2023/12/05 15:00:35;;;;;;;;;;;;;;;;;;5057824;28;19963;-53
2023/12/05 15:03:01;;;;;;;;;;;;;;;;;;5052500;28;19964;-53
2023/12/05 15:05:29;;;;;;;;;;;;;;;;;;5051657;28;19997;-52
2023/12/05 15:07:56;;;;;;;;;;;;;;;;;;5052216;28;20014;-53
2023/12/05 15:10:22;;;;;;;;;;;;;;;;;;5054505;28;20252;-52
2023/12/05 15:12:54;;;;;;;;;;;;;;;;;;5059644;28;19916;-54
2023/12/05 15:15:20;;;;;;;;;;;;;;;;;;5050637;28;20260;-54
2023/12/05 15:17:47;;;;;;;;;;;;;;;;;;5061009;28;20057;-54
2023/12/05 15:20:13;;;;;;;;;;;;;;;;;;5062634;28;20359;-54
2023/12/05 15:22:39;;;;;;;;;;;;;;;;;;5055614;28;19916;-54
2023/12/05 15:25:06;;;;;;;;;;;;;;;;;;5058638;28;19960;-54
2023/12/05 15:27:32;;;;;;;;;;;;;;;;;;5057085;28;19928;-54
2023/12/05 15:29:58;;;;;;;;;;;;;;;;;;5051649;28;19919;-54
2023/12/05 15:32:25;;;;;;;;;;;;;;;;;;5055194;28;19964;-54
2023/12/05 15:34:51;;;;;;;;;;;;;;;;;;5065640;28;20006;-54
2023/12/05 15:37:17;;;;;;;;;;;;;;;;;;5064969;28;20422;-55
2023/12/05 15:39:43;;;;;;;;;;;;;;;;;;5053858;28;20376;-54
2023/12/05 15:42:09;;;;;;;;;;;;;;;;;;5061005;28;19938;-54
2023/12/05 15:44:35;;;;;;;;;;;;;;;;;;5056149;28;20027;-55
2023/12/05 15:47:01;;;;;;;;;;;;;;;;;;5058463;28;20032;-54
2023/12/05 15:49:27;;;;;;;;;;;;;;;;;;5048499;28;20297;-54
2023/12/05 15:51:53;;;;;;;;;;;;;;;;;;5050750;28;19958;-54
2023/12/05 15:54:19;;;;;;;;;;;;;;;;;;5058091;28;19923;-54
2023/12/05 15:56:45;;;;;;;;;;;;;;;;;;5049966;28;19948;-53
2023/12/05 15:59:12;;;;;;;;;;;;;;;;;;5049671;28;19956;-53
2023/12/05 16:01:38;;;;;;;;;;;;;;;;;;5053670;28;20020;-52
2023/12/05 16:04:04;;;;;;;;;;;;;;;;;;5049811;28;19974;-52
2023/12/05 16:06:30;;;;;;;;;;;;;;;;;;5049765;28;20344;-52
2023/12/05 16:08:56;;;;;;;;;;;;;;;;;;5055889;28;19961;-53
2023/12/05 16:11:23;;;;;;;;;;;;;;;;;;5054676;28;19968;-53
2023/12/05 16:13:51;;;;;;;;;;;;;;;;;;5050345;28;19916;-52
2023/12/05 16:16:17;;;;;;;;;;;;;;;;;;5049980;28;20403;-52
2023/12/05 16:18:43;;;;;;;;;;;;;;;;;;5056099;28;20275;-52
2023/12/05 16:21:09;;;;;;;;;;;;;;;;;;5050930;28;19948;-52
2023/12/05 16:23:36;;;;;;;;;;;;;;;;;;5049188;28;19944;-52
2023/12/05 16:26:03;;;;;;;;;;;;;;;;;;5065176;28;19962;-52
2023/12/05 16:28:29;;;;;;;;;;;;;;;;;;5047209;28;19912;-52
2023/12/05 16:30:55;;;;;;;;;;;;;;;;;;5046340;28;19956;-54
2023/12/05 16:33:21;;;;;;;;;;;;;;;;;;5046403;28;20343;-52
2023/12/05 16:35:47;;;;;;;;;;;;;;;;;;5049042;28;19921;-52
2023/12/05 16:38:13;;;;;;;;;;;;;;;;;;5047125;28;19952;-52
2023/12/05 16:40:42;;;;;;;;;;;;;;;;;;5047459;28;19925;-53